Time;durP1;ratioP1;P1;durP2;ratioP2;P2;SDS_P1;SDS_P2;PMS_P1;PMS_P2;Temp;Humidity;BMP_temperature;BMP_pressure;BME280_temperature;BME280_humidity;BME280_pressure;Samples;Min_cycle;Max_cycle;Signal;HPM_P1;HPM_P2
2023/12/19 00:00:06;;;;;;;10.75;5.45;;;2.40;99.90;;;;;;4977211;28;20141;-80
2023/12/19 00:02:31;;;;;;;9.02;4.47;;;2.40;99.90;;;;;;4977420;28;20030;-80
2023/12/19 00:04:57;;;;;;;8.43;4.68;;;2.50;99.90;;;;;;4977103;28;20039;-79
2023/12/19 00:07:23;;;;;;;8.80;4.57;;;2.50;99.90;;;;;;4977032;28;23477;-79
2023/12/19 00:09:49;;;;;;;7.07;3.67;;;2.50;99.90;;;;;;4975237;28;20023;-80
2023/12/19 00:12:14;;;;;;;8.32;3.67;;;2.50;99.90;;;;;;4976777;28;20090;-79
2023/12/19 00:14:40;;;;;;;6.45;3.53;;;2.50;99.90;;;;;;4979388;28;20027;-80
2023/12/19 00:17:06;;;;;;;5.20;3.13;;;2.50;99.90;;;;;;4974500;28;20038;-79
2023/12/19 00:19:31;;;;;;;6.45;3.53;;;2.60;99.90;;;;;;4974193;28;20033;-80
2023/12/19 00:21:57;;;;;;;8.60;4.22;;;2.60;99.90;;;;;;4976253;28;20042;-80
2023/12/19 00:24:23;;;;;;;10.38;5.45;;;2.60;99.90;;;;;;4975349;28;20065;-80
2023/12/19 00:26:48;;;;;;;12.02;5.82;;;2.60;99.90;;;;;;4975944;28;20031;-79
2023/12/19 00:29:14;;;;;;;11.98;6.93;;;2.50;99.90;;;;;;4978643;28;20026;-80
2023/12/19 00:31:39;;;;;;;11.30;5.85;;;2.50;99.90;;;;;;4977170;28;20114;-79
2023/12/19 00:34:05;;;;;;;11.73;6.65;;;2.50;99.90;;;;;;4975005;28;20118;-80
2023/12/19 00:36:30;;;;;;;14.45;7.55;;;2.40;99.90;;;;;;4967480;28;20030;-80
2023/12/19 00:38:56;;;;;;;14.38;7.78;;;2.30;99.90;;;;;;4975694;28;20022;-79
2023/12/19 00:41:22;;;;;;;14.98;7.82;;;2.30;99.90;;;;;;4970862;28;20464;-79
2023/12/19 00:43:47;;;;;;;11.50;6.93;;;2.20;99.90;;;;;;4977056;28;20090;-79
2023/12/19 00:46:13;;;;;;;12.57;6.72;;;2.20;99.90;;;;;;4978195;28;20039;-79
2023/12/19 00:48:39;;;;;;;14.30;7.38;;;2.20;99.90;;;;;;4975759;28;20129;-79
2023/12/19 00:51:10;;;;;;;12.35;6.90;;;2.10;99.90;;;;;;4971949;28;20081;-80
2023/12/19 00:53:36;;;;;;;14.25;8.25;;;2.10;99.90;;;;;;4973908;28;20046;-80
2023/12/19 00:56:01;;;;;;;12.48;7.80;;;2.10;99.90;;;;;;4976263;28;20365;-80
2023/12/19 00:58:27;;;;;;;12.15;7.18;;;2.10;99.90;;;;;;4975611;28;20503;-79
2023/12/19 01:00:53;;;;;;;12.70;5.78;;;2.10;99.90;;;;;;4976063;28;20074;-80
2023/12/19 01:03:18;;;;;;;10.32;5.72;;;2.00;99.90;;;;;;4970081;28;20506;-80
2023/12/19 01:05:44;;;;;;;7.93;4.60;;;2.10;99.90;;;;;;4971592;28;20031;-79
2023/12/19 01:08:10;;;;;;;8.57;4.65;;;2.10;99.90;;;;;;4975004;28;20031;-80
2023/12/19 01:10:35;;;;;;;7.55;3.78;;;2.10;99.90;;;;;;4977189;28;20419;-80
2023/12/19 01:13:01;;;;;;;9.43;3.78;;;2.10;99.90;;;;;;4974387;28;20136;-79
2023/12/19 01:15:26;;;;;;;7.03;3.75;;;2.10;99.90;;;;;;4979436;28;20041;-80
2023/12/19 01:17:52;;;;;;;10.15;4.55;;;2.10;99.90;;;;;;4974593;28;20515;-79
2023/12/19 01:20:18;;;;;;;8.90;5.32;;;2.10;99.90;;;;;;4992263;23;20034;-74
2023/12/19 01:22:43;;;;;;;11.38;5.38;;;2.10;99.90;;;;;;4978455;28;20405;-74
2023/12/19 01:25:09;;;;;;;11.63;5.63;;;2.10;99.90;;;;;;4995599;28;20039;-75
2023/12/19 01:27:37;;;;;;;12.50;6.25;;;2.10;99.90;;;;;;4995611;28;20015;-74
2023/12/19 01:30:03;;;;;;;12.85;6.80;;;2.10;99.90;;;;;;4996116;28;20019;-75
2023/12/19 01:32:32;;;;;;;10.82;6.57;;;2.10;99.90;;;;;;4995428;28;20040;-75
2023/12/19 01:34:57;;;;;;;12.32;6.82;;;2.10;99.90;;;;;;4995992;28;20026;-75
2023/12/19 01:37:23;;;;;;;12.18;6.00;;;2.10;99.90;;;;;;4976432;28;20054;-75
2023/12/19 01:39:48;;;;;;;12.80;7.05;;;2.00;99.90;;;;;;4994296;28;20038;-75
2023/12/19 01:42:17;;;;;;;12.77;6.70;;;2.00;99.90;;;;;;4994382;28;20030;-75
2023/12/19 01:44:50;;;;;;;10.82;5.57;;;2.00;99.90;;;;;;4990669;28;20038;-75
2023/12/19 01:47:16;;;;;;;10.13;5.60;;;2.00;99.90;;;;;;4994480;28;20026;-74
2023/12/19 01:49:44;;;;;;;8.75;4.78;;;1.90;99.90;;;;;;4992827;28;20543;-75
2023/12/19 01:52:13;;;;;;;6.70;3.58;;;1.90;99.90;;;;;;4989430;28;20029;-75
2023/12/19 01:54:39;;;;;;;7.53;3.60;;;1.90;99.90;;;;;;4986449;28;20157;-74
2023/12/19 01:57:11;;;;;;;5.07;3.05;;;2.00;99.90;;;;;;4986121;28;20030;-74
2023/12/19 01:59:37;;;;;;;6.22;2.80;;;2.00;99.90;;;;;;4989012;28;20133;-74
2023/12/19 02:02:03;;;;;;;5.03;3.20;;;2.10;99.90;;;;;;4989833;28;20106;-74
2023/12/19 02:04:29;;;;;;;5.30;2.78;;;2.10;99.90;;;;;;4989150;28;20042;-74
2023/12/19 02:06:54;;;;;;;5.93;2.83;;;2.10;99.90;;;;;;4994853;28;20026;-75
2023/12/19 02:09:23;;;;;;;4.28;2.70;;;2.10;99.90;;;;;;4975941;28;20029;-75
2023/12/19 02:11:51;;;;;;;4.30;2.20;;;2.10;99.90;;;;;;4992125;28;20373;-75
2023/12/19 02:14:17;;;;;;;4.93;2.30;;;2.10;99.90;;;;;;4970219;28;20030;-75
2023/12/19 02:16:42;;;;;;;4.28;2.33;;;2.10;99.90;;;;;;4988015;28;20026;-74
2023/12/19 02:19:12;;;;;;;5.50;3.03;;;2.10;99.90;;;;;;4972751;28;20121;-74
2023/12/19 02:21:37;;;;;;;5.65;3.15;;;2.10;99.90;;;;;;4992516;28;20408;-75
2023/12/19 02:24:04;;;;;;;6.68;3.22;;;2.10;99.90;;;;;;4993510;28;20101;-75
2023/12/19 02:26:33;;;;;;;10.63;5.43;;;2.10;99.90;;;;;;4994167;28;20062;-75
2023/12/19 02:28:59;;;;;;;12.30;5.78;;;2.10;99.90;;;;;;4991408;28;20030;-75
2023/12/19 02:31:31;;;;;;;10.95;6.00;;;2.10;99.90;;;;;;4974409;28;20018;-75
2023/12/19 02:33:56;;;;;;;13.38;6.82;;;2.10;99.90;;;;;;4988559;28;20133;-75
2023/12/19 02:36:22;;;;;;;12.43;6.47;;;2.00;99.90;;;;;;4988521;28;20093;-75
2023/12/19 02:38:50;;;;;;;10.32;5.72;;;2.00;99.90;;;;;;4989548;28;20041;-74
2023/12/19 02:41:19;;;;;;;12.68;6.30;;;1.90;99.90;;;;;;4994880;28;20033;-75
2023/12/19 02:43:44;;;;;;;10.68;5.32;;;1.80;99.90;;;;;;4988608;28;20022;-75
2023/12/19 02:46:10;;;;;;;13.57;5.65;;;1.80;99.90;;;;;;4986947;28;20038;-73
2023/12/19 02:48:35;;;;;;;10.57;5.47;;;1.80;99.90;;;;;;4971865;28;20050;-74
2023/12/19 02:51:01;;;;;;;12.80;6.22;;;1.80;99.90;;;;;;4983220;28;20030;-74
2023/12/19 02:53:27;;;;;;;15.43;6.40;;;1.70;99.90;;;;;;4985512;28;20029;-74
2023/12/19 02:55:53;;;;;;;10.60;5.53;;;1.70;99.90;;;;;;4984867;28;20027;-73
2023/12/19 02:58:19;;;;;;;10.18;5.65;;;1.60;99.90;;;;;;4987474;28;20034;-74
2023/12/19 03:00:45;;;;;;;10.93;5.43;;;1.60;99.90;;;;;;4969369;28;23424;-74
2023/12/19 03:03:10;;;;;;;9.85;4.82;;;1.60;99.90;;;;;;4970306;28;20065;-74
2023/12/19 03:05:39;;;;;;;7.70;5.20;;;1.50;99.90;;;;;;4990814;28;20037;-74
2023/12/19 03:08:05;;;;;;;8.25;4.50;;;1.50;99.90;;;;;;4994216;28;20026;-73
2023/12/19 03:10:30;;;;;;;8.85;4.03;;;1.50;99.90;;;;;;4988774;28;20030;-73
2023/12/19 03:12:56;;;;;;;9.88;3.80;;;1.50;99.90;;;;;;4991447;28;20109;-73
2023/12/19 03:15:21;;;;;;;7.63;4.35;;;1.50;99.90;;;;;;4985441;28;20033;-73
2023/12/19 03:17:47;;;;;;;8.70;4.55;;;1.50;99.90;;;;;;4975670;28;20037;-73
2023/12/19 03:20:21;;;;;;;11.25;5.10;;;1.50;99.90;;;;;;4995001;28;20065;-74
2023/12/19 03:22:50;;;;;;;8.98;4.43;;;1.50;99.90;;;;;;4972962;28;20023;-75
2023/12/19 03:25:15;;;;;;;10.77;4.70;;;1.50;99.90;;;;;;4989584;28;20027;-73
2023/12/19 03:27:44;;;;;;;6.97;3.08;;;1.50;99.90;;;;;;4997384;28;20033;-72
2023/12/19 03:30:10;;;;;;;5.63;3.53;;;1.50;99.90;;;;;;4988699;28;20037;-73
2023/12/19 03:32:39;;;;;;;6.47;3.20;;;1.50;99.90;;;;;;4991357;28;20034;-73
2023/12/19 03:35:05;;;;;;;3.88;2.28;;;1.60;99.90;;;;;;4986625;28;20037;-73
2023/12/19 03:37:31;;;;;;;6.60;2.70;;;1.60;99.90;;;;;;4993765;28;20504;-73
2023/12/19 03:39:57;;;;;;;6.43;2.78;;;1.60;99.90;;;;;;4987674;28;20441;-74
2023/12/19 03:42:23;;;;;;;5.25;2.75;;;1.70;99.90;;;;;;4987528;28;20026;-73
2023/12/19 03:44:48;;;;;;;4.88;2.63;;;1.80;99.90;;;;;;4987392;28;20037;-73
2023/12/19 03:47:17;;;;;;;4.85;2.60;;;1.80;99.90;;;;;;4996071;28;20026;-72
2023/12/19 03:49:42;;;;;;;4.93;2.72;;;1.80;99.90;;;;;;4979123;28;20023;-72
2023/12/19 03:52:08;;;;;;;4.78;2.40;;;1.80;99.90;;;;;;4982565;28;20042;-74
2023/12/19 03:54:34;;;;;;;5.60;2.40;;;1.80;99.90;;;;;;4987528;28;20132;-73
2023/12/19 03:57:00;;;;;;;5.43;2.92;;;1.80;99.90;;;;;;4989819;28;20465;-72
2023/12/19 03:59:25;;;;;;;5.10;3.00;;;1.90;99.90;;;;;;4989041;28;20030;-75
2023/12/19 04:01:56;;;;;;;4.22;2.45;;;1.80;99.90;;;;;;4992105;28;20519;-75
2023/12/19 04:04:21;;;;;;;5.38;2.78;;;1.80;99.90;;;;;;4993970;28;20062;-74
2023/12/19 04:06:50;;;;;;;5.75;2.50;;;1.70;99.90;;;;;;4993554;28;20152;-72
2023/12/19 04:09:16;;;;;;;4.93;2.60;;;1.70;99.90;;;;;;4984031;28;20045;-72
2023/12/19 04:11:46;;;;;;;4.38;2.40;;;1.70;99.90;;;;;;4986389;28;20022;-72
2023/12/19 04:14:13;;;;;;;6.05;2.50;;;1.70;99.90;;;;;;4989263;28;20500;-73
2023/12/19 04:16:38;;;;;;;5.88;3.15;;;1.60;99.90;;;;;;4972482;28;20146;-74
2023/12/19 04:19:04;;;;;;;5.32;2.70;;;1.60;99.90;;;;;;4986526;28;20082;-74
2023/12/19 04:21:29;;;;;;;5.15;3.03;;;1.60;99.90;;;;;;4991044;28;20041;-74
2023/12/19 04:23:58;;;;;;;4.47;2.17;;;1.60;99.90;;;;;;4985712;28;20397;-73
2023/12/19 04:26:30;;;;;;;9.10;3.45;;;1.50;99.90;;;;;;4991786;28;20553;-73
2023/12/19 04:28:55;;;;;;;6.40;2.80;;;1.50;99.90;;;;;;4986486;28;20037;-75
2023/12/19 04:31:21;;;;;;;5.10;2.50;;;1.50;99.90;;;;;;4990599;28;20022;-72
2023/12/19 04:33:46;;;;;;;3.65;2.40;;;1.50;99.90;;;;;;4993410;28;20022;-72
2023/12/19 04:36:13;;;;;;;6.07;2.33;;;1.50;99.90;;;;;;4985267;28;20066;-74
2023/12/19 04:38:39;;;;;;;7.35;2.83;;;1.50;99.90;;;;;;4996474;28;20504;-72
2023/12/19 04:41:07;;;;;;;6.10;2.97;;;1.50;99.90;;;;;;4988081;28;20106;-72
2023/12/19 04:43:33;;;;;;;4.47;2.72;;;1.50;99.90;;;;;;4976551;28;20122;-72
2023/12/19 04:46:02;;;;;;;4.50;2.58;;;1.40;99.90;;;;;;4991579;28;20124;-72
2023/12/19 04:48:33;;;;;;;5.60;2.60;;;1.40;99.90;;;;;;4990419;28;20105;-72
2023/12/19 04:50:58;;;;;;;4.78;2.50;;;1.40;99.90;;;;;;4998612;28;20030;-74
2023/12/19 04:53:30;;;;;;;5.10;1.98;;;1.40;99.90;;;;;;4990990;28;20044;-74
2023/12/19 04:55:56;;;;;;;3.97;2.00;;;1.40;99.90;;;;;;4995283;28;20027;-75
2023/12/19 04:58:21;;;;;;;6.07;2.83;;;1.40;99.90;;;;;;4977347;28;20391;-72
2023/12/19 05:00:48;;;;;;;5.43;2.88;;;1.50;99.90;;;;;;4973285;28;20067;-74
2023/12/19 05:03:14;;;;;;;4.75;2.88;;;1.50;99.90;;;;;;4987925;28;20030;-73
2023/12/19 05:05:39;;;;;;;9.68;3.15;;;1.50;99.90;;;;;;4987890;28;20037;-73
2023/12/19 05:08:05;;;;;;;6.20;3.35;;;1.50;99.90;;;;;;4991281;28;20045;-72
2023/12/19 05:10:30;;;;;;;4.63;2.33;;;1.50;99.90;;;;;;4990428;28;20022;-73
2023/12/19 05:12:56;;;;;;;5.50;2.55;;;1.50;99.90;;;;;;4976481;28;20085;-73
2023/12/19 05:15:22;;;;;;;3.72;2.22;;;1.50;99.90;;;;;;4988360;28;20113;-72
2023/12/19 05:17:47;;;;;;;3.85;2.35;;;1.50;99.90;;;;;;4989169;28;20034;-73
2023/12/19 05:20:15;;;;;;;4.32;2.22;;;1.50;99.90;;;;;;4991315;28;20062;-72
2023/12/19 05:22:44;;;;;;;5.25;2.80;;;1.50;99.90;;;;;;4992331;28;20030;-74
2023/12/19 05:25:10;;;;;;;5.07;2.55;;;1.50;99.90;;;;;;4992737;28;20633;-72
2023/12/19 05:27:36;;;;;;;7.20;3.22;;;1.50;99.90;;;;;;4994941;28;20026;-73
2023/12/19 05:30:02;;;;;;;6.30;2.13;;;1.50;99.90;;;;;;4990001;28;20022;-74
2023/12/19 05:32:30;;;;;;;5.38;2.45;;;1.60;99.90;;;;;;4991278;28;20469;-73
2023/12/19 05:34:56;;;;;;;5.10;2.42;;;1.60;99.90;;;;;;4993130;28;20388;-75
2023/12/19 05:37:22;;;;;;;4.47;2.88;;;1.60;99.90;;;;;;4994986;28;20043;-74
2023/12/19 05:39:48;;;;;;;5.18;2.70;;;1.60;99.90;;;;;;4989948;28;20062;-74
2023/12/19 05:42:20;;;;;;;4.97;2.10;;;1.60;99.90;;;;;;4992671;28;20029;-74
2023/12/19 05:44:45;;;;;;;6.10;3.13;;;1.70;99.90;;;;;;4991675;28;20034;-73
2023/12/19 05:47:11;;;;;;;8.27;2.78;;;1.70;99.90;;;;;;4988786;28;20027;-75
2023/12/19 05:49:37;;;;;;;4.63;2.60;;;1.70;99.90;;;;;;4991696;28;20082;-74
2023/12/19 05:52:02;;;;;;;4.38;2.50;;;1.70;99.90;;;;;;4992843;28;20022;-74
2023/12/19 05:54:28;;;;;;;6.35;2.50;;;1.70;99.90;;;;;;4990198;28;20049;-72
2023/12/19 05:56:53;;;;;;;5.25;2.80;;;1.80;99.90;;;;;;4997625;28;20029;-74
2023/12/19 05:59:19;;;;;;;4.32;2.60;;;1.80;99.90;;;;;;4997223;28;20034;-74
2023/12/19 06:01:51;;;;;;;3.92;2.30;;;1.80;99.90;;;;;;4991695;28;20378;-74
2023/12/19 06:04:16;;;;;;;6.07;2.65;;;1.80;99.90;;;;;;4984298;28;20045;-74
2023/12/19 06:06:44;;;;;;;5.28;2.40;;;1.80;99.90;;;;;;4988300;28;20417;-74
2023/12/19 06:09:11;;;;;;;4.80;2.90;;;1.90;99.90;;;;;;4988367;28;20073;-75
2023/12/19 06:11:37;;;;;;;5.45;2.20;;;1.90;99.90;;;;;;4994847;28;20022;-75
2023/12/19 06:14:08;;;;;;;7.25;3.08;;;1.80;99.90;;;;;;4992196;28;20082;-74
2023/12/19 06:16:33;;;;;;;5.43;3.08;;;1.80;99.90;;;;;;4987761;28;20389;-74
2023/12/19 06:18:59;;;;;;;8.48;2.55;;;1.80;99.90;;;;;;4990606;28;20116;-74
2023/12/19 06:21:25;;;;;;;4.20;2.35;;;1.80;99.90;;;;;;4992393;28;20022;-74
2023/12/19 06:23:53;;;;;;;8.98;2.95;;;1.80;99.90;;;;;;4996516;28;20550;-74
2023/12/19 06:26:19;;;;;;;5.68;3.10;;;1.80;99.90;;;;;;4995132;28;20030;-74
2023/12/19 06:28:47;;;;;;;7.32;3.15;;;1.70;99.90;;;;;;4974927;28;20073;-73
2023/12/19 06:31:13;;;;;;;11.00;3.33;;;1.70;99.90;;;;;;4989470;28;20068;-73
2023/12/19 06:33:39;;;;;;;10.10;3.92;;;1.70;99.90;;;;;;4994627;28;20026;-74
2023/12/19 06:36:05;;;;;;;8.68;3.10;;;1.80;99.90;;;;;;4994691;28;20022;-74
2023/12/19 06:38:33;;;;;;;7.70;3.20;;;1.70;99.90;;;;;;4994657;28;20121;-74
2023/12/19 06:41:02;;;;;;;5.82;2.83;;;1.70;99.90;;;;;;4991030;28;20716;-74
2023/12/19 06:43:27;;;;;;;6.90;2.80;;;1.70;99.90;;;;;;4988877;28;20027;-74
2023/12/19 06:45:53;;;;;;;5.90;2.78;;;1.70;99.90;;;;;;4993552;28;20023;-73
2023/12/19 06:48:25;;;;;;;7.05;3.47;;;1.70;99.90;;;;;;4986938;28;20038;-75
2023/12/19 06:50:56;;;;;;;8.63;3.50;;;1.70;99.90;;;;;;4988178;28;20100;-74
2023/12/19 06:53:22;;;;;;;7.78;3.35;;;1.70;99.90;;;;;;4988935;28;20026;-73
2023/12/19 06:55:53;;;;;;;9.57;3.20;;;1.70;99.90;;;;;;4993620;28;20065;-74
2023/12/19 06:58:19;;;;;;;9.55;3.88;;;1.70;99.90;;;;;;4990740;28;20539;-74
2023/12/19 07:00:45;;;;;;;7.65;3.22;;;1.70;99.90;;;;;;4989865;28;20031;-75
2023/12/19 07:03:10;;;;;;;9.20;3.70;;;1.70;99.90;;;;;;4990490;28;20058;-75
2023/12/19 07:05:36;;;;;;;13.15;4.15;;;1.70;99.90;;;;;;4990776;28;20133;-74
2023/12/19 07:08:02;;;;;;;10.10;3.70;;;1.70;99.90;;;;;;4990214;28;20026;-74
2023/12/19 07:10:27;;;;;;;10.60;3.67;;;1.70;99.90;;;;;;4989688;28;20080;-75
2023/12/19 07:12:53;;;;;;;12.85;3.90;;;1.70;99.90;;;;;;4991053;28;20030;-74
2023/12/19 07:15:24;;;;;;;9.35;3.63;;;1.70;99.90;;;;;;4991086;28;20500;-74
2023/12/19 07:17:53;;;;;;;13.77;4.28;;;1.70;99.90;;;;;;4995931;28;20053;-74
2023/12/19 07:20:19;;;;;;;11.70;4.40;;;1.70;99.90;;;;;;4994115;28;20030;-74
2023/12/19 07:22:45;;;;;;;11.57;4.85;;;1.70;99.90;;;;;;4998625;28;20022;-74
2023/12/19 07:25:10;;;;;;;12.23;5.80;;;1.80;99.90;;;;;;4986801;28;20373;-74
2023/12/19 07:27:39;;;;;;;16.20;5.43;;;1.80;99.90;;;;;;4988320;28;20077;-74
2023/12/19 07:30:05;;;;;;;14.23;5.97;;;1.80;99.90;;;;;;4985351;28;20024;-75
2023/12/19 07:32:34;;;;;;;13.02;6.15;;;1.80;99.90;;;;;;4980032;28;20037;-74
2023/12/19 07:37:36;;;;;;;16.63;5.68;;;1.80;99.90;;;;;;5004128;28;20412;-74
2023/12/19 07:40:02;;;;;;;10.77;4.60;;;1.70;99.90;;;;;;5008452;28;20014;-74
2023/12/19 07:42:27;;;;;;;9.55;4.65;;;1.70;99.90;;;;;;5011474;28;20048;-73
2023/12/19 07:44:53;;;;;;;9.80;4.45;;;1.60;99.90;;;;;;5010310;28;20069;-73
2023/12/19 07:47:19;;;;;;;10.82;4.03;;;1.60;99.90;;;;;;5009398;28;20633;-73
2023/12/19 07:49:47;;;;;;;7.57;3.55;;;1.60;99.90;;;;;;5009673;28;20131;-73
2023/12/19 07:52:19;;;;;;;7.90;4.45;;;1.50;99.90;;;;;;5004687;28;20476;-73
2023/12/19 07:54:48;;;;;;;9.57;4.20;;;1.50;99.90;;;;;;5011040;28;20569;-74
2023/12/19 07:57:22;;;;;;;9.32;3.92;;;1.50;99.90;;;;;;5005189;28;20022;-75
2023/12/19 07:59:49;;;;;;;9.23;4.45;;;1.60;99.90;;;;;;5007664;28;20135;-76
2023/12/19 08:02:15;;;;;;;11.95;4.50;;;1.60;99.90;;;;;;5003100;28;20034;-76
2023/12/19 08:04:46;;;;;;;9.48;4.93;;;1.60;99.90;;;;;;5009906;28;20084;-72
2023/12/19 08:07:18;;;;;;;12.27;4.57;;;1.70;99.90;;;;;;5005434;28;20026;-72
2023/12/19 08:09:43;;;;;;;11.27;4.90;;;1.70;99.90;;;;;;5008267;28;20026;-73
2023/12/19 08:12:09;;;;;;;11.70;4.72;;;1.80;99.90;;;;;;5010875;28;20022;-74
2023/12/19 08:14:34;;;;;;;9.18;4.68;;;1.80;99.90;;;;;;5009070;28;20148;-72
2023/12/19 08:17:01;;;;;;;8.73;4.05;;;1.90;99.90;;;;;;5006137;28;20033;-75
2023/12/19 08:19:27;;;;;;;7.72;3.40;;;1.90;99.90;;;;;;5011620;28;20536;-74
2023/12/19 08:21:56;;;;;;;6.68;3.70;;;2.00;99.90;;;;;;5005379;28;20112;-74
2023/12/19 08:24:27;;;;;;;7.18;2.90;;;2.00;99.90;;;;;;5004497;28;20439;-74
2023/12/19 08:26:53;;;;;;;10.65;4.13;;;2.10;99.90;;;;;;5006326;28;20370;-74
2023/12/19 08:29:21;;;;;;;9.70;4.65;;;2.10;99.90;;;;;;5006833;28;20036;-74
2023/12/19 08:31:50;;;;;;;7.78;4.00;;;2.20;99.90;;;;;;5005916;28;20081;-74
2023/12/19 08:34:19;;;;;;;8.63;4.03;;;2.30;99.90;;;;;;5007482;28;20111;-74
2023/12/19 08:36:48;;;;;;;11.65;4.43;;;2.30;99.90;;;;;;5004148;28;20022;-74
2023/12/19 08:39:14;;;;;;;8.98;4.10;;;2.30;99.90;;;;;;5006882;28;20033;-74
2023/12/19 08:41:45;;;;;;;12.15;4.75;;;2.40;99.90;;;;;;5006680;28;20026;-74
2023/12/19 08:44:11;;;;;;;6.90;3.55;;;2.40;99.90;;;;;;5006079;28;20052;-73
2023/12/19 08:46:36;;;;;;;8.30;3.65;;;2.50;99.90;;;;;;5007559;28;20034;-74
2023/12/19 08:49:02;;;;;;;8.13;3.60;;;2.50;99.90;;;;;;5008674;28;20097;-74
2023/12/19 08:51:28;;;;;;;9.50;4.15;;;2.60;99.90;;;;;;4990941;28;20038;-74
2023/12/19 08:53:53;;;;;;;9.05;4.35;;;2.70;99.90;;;;;;5005745;28;20026;-74
2023/12/19 08:56:28;;;;;;;9.30;4.72;;;2.70;99.90;;;;;;5006495;28;20393;-74
2023/12/19 08:59:00;;;;;;;11.60;4.78;;;2.70;99.90;;;;;;4997880;28;20026;-75
2023/12/19 09:01:26;;;;;;;12.98;5.10;;;2.80;99.90;;;;;;5005882;28;20022;-74
2023/12/19 09:03:52;;;;;;;12.35;5.25;;;2.80;99.90;;;;;;5007152;28;20507;-75
2023/12/19 09:06:21;;;;;;;13.45;6.07;;;2.80;99.90;;;;;;5003858;28;20050;-74
2023/12/19 09:08:52;;;;;;;13.13;5.10;;;2.90;99.90;;;;;;5005173;28;20069;-75
2023/12/19 09:11:27;;;;;;;10.85;4.90;;;3.00;99.90;;;;;;5002463;28;20034;-75
2023/12/19 09:13:59;;;;;;;8.32;3.97;;;3.10;99.90;;;;;;5004472;28;20433;-75
2023/12/19 09:16:24;;;;;;;9.45;4.72;;;3.10;99.90;;;;;;4999985;28;20034;-74
2023/12/19 09:18:52;;;;;;;11.27;4.28;;;3.20;99.90;;;;;;5008911;28;20026;-75
2023/12/19 09:21:18;;;;;;;7.60;3.33;;;3.30;99.90;;;;;;5006681;28;20507;-73
2023/12/19 09:23:46;;;;;;;10.93;4.20;;;3.30;99.90;;;;;;5003590;28;20057;-74
2023/12/19 09:26:15;;;;;;;10.35;3.88;;;3.30;99.90;;;;;;5007020;28;20485;-73
2023/12/19 09:28:40;;;;;;;9.40;4.28;;;3.30;99.90;;;;;;5009005;28;20176;-74
2023/12/19 09:31:19;;;;;;;10.98;4.63;;;3.30;99.90;;;;;;5008466;28;20112;-73
2023/12/19 09:33:44;;;;;;;11.32;4.82;;;3.40;99.90;;;;;;4987961;28;20026;-73
2023/12/19 09:36:26;;;;;;;10.18;4.43;;;3.50;99.90;;;;;;5012679;28;20037;-73
2023/12/19 09:38:54;;;;;;;12.80;4.80;;;3.60;99.90;;;;;;5011429;28;20045;-73
2023/12/19 09:41:26;;;;;;;14.05;4.85;;;3.70;99.90;;;;;;5011567;28;20485;-73
2023/12/19 09:43:52;;;;;;;12.35;4.45;;;3.70;99.90;;;;;;5002530;28;20040;-74
2023/12/19 09:46:18;;;;;;;9.40;4.57;;;3.80;99.90;;;;;;4994302;28;20400;-73
2023/12/19 09:48:53;;;;;;;10.73;5.68;;;3.90;99.90;;;;;;5011302;28;20026;-75
2023/12/19 09:51:28;;;;;;;14.73;7.07;;;4.00;99.90;;;;;;5013231;28;20404;-74
2023/12/19 09:53:55;;;;;;;13.20;6.13;;;4.10;99.90;;;;;;5009905;28;20075;-75
2023/12/19 09:56:22;;;;;;;10.63;4.63;;;4.10;99.90;;;;;;5004692;28;20037;-73
2023/12/19 09:58:51;;;;;;;10.25;4.35;;;4.20;99.90;;;;;;4991091;28;20055;-74
2023/12/19 10:01:22;;;;;;;8.95;4.18;;;4.30;99.90;;;;;;5008985;28;20034;-75
2023/12/19 10:04:01;;;;;;;12.13;4.72;;;4.40;99.90;;;;;;5009532;28;20026;-75
2023/12/19 10:06:26;;;;;;;10.20;4.07;;;4.50;99.90;;;;;;5009760;28;20052;-74
2023/12/19 10:08:58;;;;;;;8.85;4.68;;;4.50;99.90;;;;;;5009665;28;20030;-74
2023/12/19 10:11:27;;;;;;;10.70;4.82;;;4.60;99.90;;;;;;5010249;28;20025;-74
2023/12/19 10:14:07;;;;;;;11.32;4.72;;;4.60;99.90;;;;;;5004988;28;20546;-74
2023/12/19 10:16:38;;;;;;;9.68;4.45;;;4.60;99.90;;;;;;4994479;28;20030;-73
2023/12/19 10:19:11;;;;;;;12.82;4.88;;;4.70;99.90;;;;;;5005761;28;20090;-75
2023/12/19 10:21:47;;;;;;;11.98;4.80;;;4.70;99.90;;;;;;4990007;28;21102;-74
2023/12/19 10:24:26;;;;;;;6.60;4.50;;;4.80;99.90;;;;;;5008192;28;20079;-75
2023/12/19 10:26:59;;;;;;;8.68;4.28;;;4.90;99.90;;;;;;4993090;28;20038;-75
2023/12/19 10:29:35;;;;;;;11.82;4.53;;;5.00;99.90;;;;;;5009776;28;20030;-74
2023/12/19 10:32:14;;;;;;;9.98;4.72;;;5.00;99.90;;;;;;5005090;28;20052;-74
2023/12/19 10:34:44;;;;;;;10.18;4.90;;;5.10;99.90;;;;;;5006253;28;20472;-75
2023/12/19 10:37:20;;;;;;;11.93;4.72;;;5.20;99.90;;;;;;5006327;28;20030;-75
2023/12/19 10:39:47;;;;;;;7.53;4.55;;;5.30;99.90;;;;;;5010346;28;20044;-76
2023/12/19 10:42:13;;;;;;;12.15;4.05;;;5.40;99.90;;;;;;4990882;28;20033;-77
2023/12/19 10:44:42;;;;;;;8.55;3.70;;;5.50;99.90;;;;;;4992655;28;20033;-76
2023/12/19 10:47:09;;;;;;;10.38;4.22;;;5.60;99.90;;;;;;5008030;28;20083;-77
2023/12/19 10:49:39;;;;;;;8.82;3.78;;;5.60;99.90;;;;;;5010213;28;20780;-76
2023/12/19 10:52:18;;;;;;;7.25;3.70;;;5.70;99.90;;;;;;5007939;28;20018;-76
2023/12/19 10:54:49;;;;;;;12.38;4.38;;;5.70;99.90;;;;;;5006827;28;20057;-76
2023/12/19 10:57:18;;;;;;;10.02;5.63;;;5.80;99.90;;;;;;5010261;28;20068;-76
2023/12/19 11:00:10;;;;;;;11.88;5.28;;;5.90;99.90;;;;;;4992663;28;20064;-76
2023/12/19 11:02:38;;;;;;;14.10;6.18;;;5.90;99.90;;;;;;5009540;28;20419;-76
2023/12/19 11:05:23;;;;;;;8.90;4.50;;;5.90;99.90;;;;;;5010051;28;20022;-77
2023/12/19 11:07:51;;;;;;;12.82;4.47;;;5.90;99.90;;;;;;5012559;28;20093;-77
2023/12/19 11:10:20;;;;;;;8.43;3.83;;;5.80;99.90;;;;;;5001962;28;20480;-77
2023/12/19 11:12:50;;;;;;;8.35;3.92;;;5.80;99.90;;;;;;5006765;28;20872;-76
2023/12/19 11:15:19;;;;;;;9.27;4.40;;;5.80;99.90;;;;;;5013605;28;20038;-76
2023/12/19 11:17:44;;;;;;;12.73;3.60;;;5.70;99.90;;;;;;5011802;28;20046;-76
2023/12/19 11:20:25;;;;;;;8.27;3.78;;;5.70;99.90;;;;;;5013131;28;20100;-77
2023/12/19 11:23:19;;;;;;;9.77;4.43;;;5.60;99.90;;;;;;5011816;28;20109;-77
2023/12/19 11:25:59;;;;;;;7.25;4.03;;;5.60;99.90;;;;;;5005887;28;20121;-76
2023/12/19 11:28:35;;;;;;;9.45;4.88;;;5.60;99.90;;;;;;5005329;28;20022;-76
2023/12/19 11:31:00;;;;;;;8.95;4.40;;;5.50;99.90;;;;;;5012816;28;20108;-77
2023/12/19 11:33:30;;;;;;;9.85;3.75;;;5.50;99.90;;;;;;5007710;28;20583;-75
2023/12/19 11:36:09;;;;;;;11.10;4.25;;;5.50;99.90;;;;;;5011516;28;20030;-76
2023/12/19 11:38:37;;;;;;;10.63;3.90;;;5.50;99.90;;;;;;4995207;28;20034;-77
2023/12/19 11:41:04;;;;;;;8.55;4.53;;;5.50;99.90;;;;;;5007165;28;20053;-76
2023/12/19 11:43:29;;;;;;;10.10;4.10;;;5.50;99.90;;;;;;4991346;28;20040;-77
2023/12/19 11:46:16;;;;;;;10.27;3.78;;;5.50;99.90;;;;;;5004900;28;20484;-78
2023/12/19 11:48:47;;;;;;;15.40;5.43;;;5.60;99.90;;;;;;5005931;28;20022;-77
2023/12/19 11:51:41;;;;;;;11.55;5.65;;;5.60;99.90;;;;;;5011475;28;20022;-77
2023/12/19 11:54:10;;;;;;;;;;;5.80;99.90;;;;;;5009954;28;20045;-76
2023/12/19 11:56:40;;;;;;;9.68;6.40;;;5.90;99.90;;;;;;5014295;28;19906;-76
2023/12/19 11:59:08;;;;;;;16.98;8.48;;;5.90;99.90;;;;;;5012711;28;20026;-77
2023/12/19 12:01:40;;;;;;;15.95;6.57;;;5.90;99.90;;;;;;5004339;28;20053;-76
2023/12/19 12:04:10;;;;;;;15.45;8.05;;;5.90;99.90;;;;;;4989270;28;20973;-77
2023/12/19 12:06:43;;;;;;;16.48;8.38;;;5.80;99.90;;;;;;5011859;28;20021;-76
2023/12/19 12:09:18;;;;;;;17.15;8.00;;;5.80;99.90;;;;;;5007507;28;20064;-77
2023/12/19 12:11:52;;;;;;;14.80;7.65;;;5.80;99.90;;;;;;5008158;28;20129;-78
2023/12/19 12:14:17;;;;;;;;;;;5.70;99.90;;;;;;5003679;28;20019;-77
2023/12/19 12:16:43;;;;;;;13.95;7.80;;;5.60;99.90;;;;;;5008616;28;19917;-77
2023/12/19 12:19:16;;;;;;;19.30;9.20;;;5.50;99.90;;;;;;5005704;28;20846;-77
2023/12/19 12:21:45;;;;;;;17.05;9.30;;;5.50;99.90;;;;;;5008980;28;20105;-77
2023/12/19 12:24:23;;;;;;;22.75;10.25;;;5.50;99.90;;;;;;5002657;28;20072;-77
2023/12/19 12:26:50;;;;;;;21.10;11.25;;;5.40;99.90;;;;;;5010094;28;20100;-77
2023/12/19 12:29:19;;;;;;;15.38;8.98;;;5.40;99.90;;;;;;4992944;28;20497;-77
2023/12/19 12:31:48;;;;;;;16.00;9.27;;;5.20;99.90;;;;;;5003402;28;20041;-76
2023/12/19 12:36:58;;;;;;;16.15;9.02;;;5.10;99.90;;;;;;5007574;28;20049;-77
2023/12/19 12:39:24;;;;;;;18.58;10.07;;;5.00;99.90;;;;;;5007230;28;20026;-77
2023/12/19 12:41:50;;;;;;;19.52;10.13;;;5.00;99.90;;;;;;5007493;28;20030;-76
2023/12/19 12:44:25;;;;;;;21.13;9.77;;;4.90;99.90;;;;;;4991198;28;20121;-76
2023/12/19 12:46:51;;;;;;;20.70;10.48;;;4.90;99.90;;;;;;4971795;28;20496;-76
2023/12/19 12:49:26;;;;;;;17.05;9.82;;;4.80;99.90;;;;;;5004792;28;20029;-76
2023/12/19 12:52:04;;;;;;;18.85;10.35;;;4.80;99.90;;;;;;5007767;28;20028;-76
2023/12/19 12:54:30;;;;;;;19.30;10.32;;;4.80;99.90;;;;;;5005501;28;20377;-75
2023/12/19 12:56:56;;;;;;;20.00;11.43;;;4.80;99.90;;;;;;5009298;28;20022;-75
2023/12/19 12:59:25;;;;;;;18.90;10.20;;;4.90;99.90;;;;;;5005789;28;20064;-75
2023/12/19 13:01:51;;;;;;;19.55;9.57;;;4.90;99.90;;;;;;5014490;28;20014;-74